Time;durP1;ratioP1;P1;durP2;ratioP2;P2;SDS_P1;SDS_P2;PMS_P1;PMS_P2;Temp;Humidity;BMP_temperature;BMP_pressure;BME280_temperature;BME280_humidity;BME280_pressure;Samples;Min_cycle;Max_cycle;Signal;HPM_P1;HPM_P2
2023/09/02 00:03:11;;;;;;;;;;;;;;;19.74;61.50;99832.22;10454011;27;864;-69
2023/09/02 00:08:07;;;;;;;;;;;;;;;19.73;61.37;99825.19;10452598;27;1054;-69
2023/09/02 00:13:03;;;;;;;;;;;;;;;19.73;61.60;99831.38;10453515;27;1895;-69
2023/09/02 00:17:59;;;;;;;;;;;;;;;19.72;61.33;99827.00;10453536;27;885;-69
2023/09/02 00:22:55;;;;;;;;;;;;;;;19.73;61.45;99838.41;10453364;27;773;-69
2023/09/02 00:27:52;;;;;;;;;;;;;;;19.70;61.34;99827.09;10452743;27;1166;-69
2023/09/02 00:32:48;;;;;;;;;;;;;;;19.72;61.34;99832.28;10453086;27;1967;-69
2023/09/02 00:37:43;;;;;;;;;;;;;;;19.72;61.39;99834.94;10452941;27;809;-69
2023/09/02 00:42:39;;;;;;;;;;;;;;;19.73;61.44;99838.41;10453098;27;807;-69
2023/09/02 00:47:35;;;;;;;;;;;;;;;19.73;61.37;99835.78;10452308;27;856;-69
2023/09/02 00:52:31;;;;;;;;;;;;;;;19.73;61.32;99852.53;10452172;27;1947;-69
2023/09/02 00:57:27;;;;;;;;;;;;;;;19.72;61.45;99845.50;10452381;27;887;-69
2023/09/02 01:02:23;;;;;;;;;;;;;;;19.71;61.49;99849.09;10451572;27;906;-69
2023/09/02 01:07:19;;;;;;;;;;;;;;;19.70;61.40;99852.66;10452293;27;975;-69
2023/09/02 01:12:15;;;;;;;;;;;;;;;19.69;61.52;99845.66;10450731;27;1951;-69
2023/09/02 01:17:11;;;;;;;;;;;;;;;19.69;61.49;99850.94;10451804;27;848;-69
2023/09/02 01:22:06;;;;;;;;;;;;;;;19.68;61.28;99849.25;10451632;27;818;-69
2023/09/02 01:27:02;;;;;;;;;;;;;;;19.68;61.38;99854.53;10451211;27;1026;-69
2023/09/02 01:31:58;;;;;;;;;;;;;;;19.68;61.48;99852.75;10451291;27;1971;-69
2023/09/02 01:36:54;;;;;;;;;;;;;;;19.68;61.49;99868.63;10451094;27;805;-69
2023/09/02 01:41:50;;;;;;;;;;;;;;;19.68;61.30;99865.13;10449533;27;837;-69
2023/09/02 01:46:46;;;;;;;;;;;;;;;19.67;61.49;99868.69;10449594;27;838;-70
2023/09/02 01:51:42;;;;;;;;;;;;;;;19.66;61.36;99864.31;10449946;27;1885;-69
2023/09/02 01:56:38;;;;;;;;;;;;;;;19.66;61.25;99872.22;10449754;27;1723;-69
2023/09/02 02:01:34;;;;;;;;;;;;;;;19.66;61.32;99874.88;10450690;27;825;-69
2023/09/02 02:06:29;;;;;;;;;;;;;;;19.65;61.51;99874.03;10449720;27;854;-69
2023/09/02 02:11:25;;;;;;;;;;;;;;;19.66;61.36;99866.94;10450087;28;1940;-69
2023/09/02 02:16:22;;;;;;;;;;;;;;;19.66;61.39;99865.19;10448659;28;912;-69
2023/09/02 02:21:18;;;;;;;;;;;;;;;19.66;61.35;99865.19;10449339;28;761;-69
2023/09/02 02:26:15;;;;;;;;;;;;;;;19.67;61.40;99863.38;10450102;28;873;-69
2023/09/02 02:31:11;;;;;;;;;;;;;;;19.66;61.32;99859.00;10448338;27;1914;-69
2023/09/02 02:36:09;;;;;;;;;;;;;;;19.65;61.43;99871.38;10458468;27;817;-69
2023/09/02 02:41:05;;;;;;;;;;;;;;;19.65;61.36;99871.38;10458277;27;842;-69
2023/09/02 02:46:00;;;;;;;;;;;;;;;19.64;61.31;99853.78;10457046;27;908;-69
2023/09/02 02:50:57;;;;;;;;;;;;;;;19.64;61.38;99860.88;10457540;27;1943;-69
2023/09/02 02:55:52;;;;;;;;;;;;;;;19.63;61.45;99852.09;10456954;27;920;-69
2023/09/02 03:00:49;;;;;;;;;;;;;;;19.63;61.41;99857.38;10457122;27;876;-69
2023/09/02 03:05:45;;;;;;;;;;;;;;;19.63;61.25;99867.09;10456385;27;861;-69
2023/09/02 03:10:41;;;;;;;;;;;;;;;19.62;61.35;99874.19;10456441;27;927;-69
2023/09/02 03:15:37;;;;;;;;;;;;;;;19.62;61.37;99878.59;10455187;27;1890;-69
2023/09/02 03:20:33;;;;;;;;;;;;;;;19.63;61.33;99880.31;10455261;27;821;-69
2023/09/02 03:25:30;;;;;;;;;;;;;;;19.62;61.45;99886.53;10455841;27;770;-69
2023/09/02 03:30:26;;;;;;;;;;;;;;;19.60;61.33;99880.47;10455166;27;1507;-69
2023/09/02 03:35:22;;;;;;;;;;;;;;;19.59;61.47;99884.03;10455864;27;1914;-69
2023/09/02 03:40:18;;;;;;;;;;;;;;;19.61;61.24;99885.66;10455771;27;813;-69
2023/09/02 03:45:14;;;;;;;;;;;;;;;19.63;61.27;99883.81;10453538;27;883;-69
2023/09/02 03:50:10;;;;;;;;;;;;;;;19.64;61.37;99877.59;10454432;27;1045;-69
2023/09/02 03:55:06;;;;;;;;;;;;;;;19.67;61.22;99879.25;10454571;27;1957;-69
2023/09/02 04:00:03;;;;;;;;;;;;;;;19.66;61.16;99880.16;10454196;27;745;-69
2023/09/02 04:04:59;;;;;;;;;;;;;;;19.66;61.14;99885.44;10454724;27;889;-69
2023/09/02 04:09:56;;;;;;;;;;;;;;;19.64;61.32;99885.50;10454469;27;829;-69
2023/09/02 04:14:52;;;;;;;;;;;;;;;19.65;61.24;99883.75;10453681;27;1901;-69
2023/09/02 04:19:48;;;;;;;;;;;;;;;19.66;61.30;99872.22;10453518;27;884;-69
2023/09/02 04:24:44;;;;;;;;;;;;;;;19.68;60.99;99883.63;10453136;27;928;-70
2023/09/02 04:29:40;;;;;;;;;;;;;;;19.68;61.03;99887.13;10452664;27;1669;-69
2023/09/02 04:34:36;;;;;;;;;;;;;;;19.68;61.03;99884.47;10453407;27;1902;-69
2023/09/02 04:39:32;;;;;;;;;;;;;;;19.69;60.91;99890.63;10453472;27;876;-69
2023/09/02 04:44:27;;;;;;;;;;;;;;;19.68;61.07;99899.50;10452690;27;944;-69
2023/09/02 04:49:24;;;;;;;;;;;;;;;19.69;61.13;99909.13;10452403;27;857;-69
2023/09/02 04:54:20;;;;;;;;;;;;;;;19.67;61.08;99905.69;10450993;27;1889;-69
2023/09/02 04:59:16;;;;;;;;;;;;;;;19.68;61.07;99905.63;10451609;27;784;-69
2023/09/02 05:04:12;;;;;;;;;;;;;;;19.70;60.90;99910.84;10451732;27;766;-69
2023/09/02 05:09:08;;;;;;;;;;;;;;;19.69;61.13;99909.13;10450886;27;931;-69
2023/09/02 05:14:04;;;;;;;;;;;;;;;19.70;60.93;99924.94;10451926;27;1889;-69
2023/09/02 05:18:59;;;;;;;;;;;;;;;19.70;60.98;99926.69;10451341;27;748;-69
2023/09/02 05:23:55;;;;;;;;;;;;;;;19.69;61.05;99925.00;10450926;27;916;-69
2023/09/02 05:28:51;;;;;;;;;;;;;;;19.68;60.96;99918.00;10450186;27;1268;-69
2023/09/02 05:33:47;;;;;;;;;;;;;;;19.68;60.92;99928.59;10451266;27;2029;-69
2023/09/02 05:38:44;;;;;;;;;;;;;;;19.68;60.87;99925.94;10450498;27;1052;-69
2023/09/02 05:43:40;;;;;;;;;;;;;;;19.68;60.94;99933.88;10449839;27;967;-69
2023/09/02 05:48:36;;;;;;;;;;;;;;;19.69;60.93;99939.06;10450097;27;987;-68
2023/09/02 05:53:32;;;;;;;;;;;;;;;19.70;61.06;99939.94;10450061;27;1913;-69
2023/09/02 05:58:28;;;;;;;;;;;;;;;19.68;60.95;99944.47;10449009;27;919;-70
2023/09/02 06:03:23;;;;;;;;;;;;;;;19.68;60.97;99947.09;10449839;27;782;-70
2023/09/02 06:08:19;;;;;;;;;;;;;;;19.71;60.90;99946.94;10448235;27;915;-71
2023/09/02 06:13:15;;;;;;;;;;;;;;;19.70;61.00;99958.44;10449821;28;1962;-71
2023/09/02 06:18:11;;;;;;;;;;;;;;;19.68;61.12;99961.19;10449730;28;971;-70
2023/09/02 06:23:07;;;;;;;;;;;;;;;19.73;60.87;99968.00;10448840;28;1015;-70
2023/09/02 06:28:03;;;;;;;;;;;;;;;19.75;60.88;99969.66;10448956;28;1881;-70
2023/09/02 06:32:59;;;;;;;;;;;;;;;19.75;60.88;99971.44;10449333;28;1906;-70
2023/09/02 06:37:54;;;;;;;;;;;;;;;19.75;61.06;99982.88;10448531;28;964;-68
2023/09/02 06:42:51;;;;;;;;;;;;;;;19.75;60.90;99974.09;10449639;28;856;-69
2023/09/02 06:47:46;;;;;;;;;;;;;;;19.75;60.94;99976.75;10439919;28;1174;-70
2023/09/02 06:52:42;;;;;;;;;;;;;;;19.76;60.80;99974.03;10406936;28;1890;-69
2023/09/02 06:57:38;;;;;;;;;;;;;;;19.79;60.98;99981.81;10407447;28;794;-70
2023/09/02 07:02:34;;;;;;;;;;;;;;;19.79;61.01;99980.97;10406694;28;959;-69
2023/09/02 07:07:30;;;;;;;;;;;;;;;19.81;61.08;99981.75;10407332;28;865;-69
2023/09/02 07:12:26;;;;;;;;;;;;;;;19.81;61.03;99984.41;10406581;28;1897;-69
2023/09/02 07:17:22;;;;;;;;;;;;;;;19.81;61.28;99985.25;10407420;28;850;-70
2023/09/02 07:22:17;;;;;;;;;;;;;;;19.82;61.45;99994.03;10414628;28;884;-68
2023/09/02 07:27:13;;;;;;;;;;;;;;;19.83;61.55;100007.19;10414342;28;899;-69
2023/09/02 07:32:09;;;;;;;;;;;;;;;19.81;61.64;100017.00;10413962;28;1906;-69
2023/09/02 07:37:05;;;;;;;;;;;;;;;19.79;61.59;100028.56;10413473;28;873;-69
2023/09/02 07:42:01;;;;;;;;;;;;;;;19.78;61.76;100046.25;10413197;28;774;-67
2023/09/02 07:46:57;;;;;;;;;;;;;;;19.79;62.07;100037.34;10413646;28;802;-67
2023/09/02 07:51:53;;;;;;;;;;;;;;;19.74;62.13;100052.59;10412714;28;1890;-68
2023/09/02 07:56:49;;;;;;;;;;;;;;;19.72;62.09;100065.00;10412655;28;1017;-69
2023/09/02 08:01:45;;;;;;;;;;;;;;;19.74;61.83;100083.47;10412065;28;908;-68
2023/09/02 08:06:42;;;;;;;;;;;;;;;19.76;61.74;100076.34;10412274;28;915;-68
2023/09/02 08:11:38;;;;;;;;;;;;;;;19.76;61.91;100081.63;10412744;28;1951;-68
2023/09/02 08:16:34;;;;;;;;;;;;;;;19.77;61.88;100097.41;10411698;28;770;-68
2023/09/02 08:21:30;;;;;;;;;;;;;;;19.81;61.96;100100.78;10412318;28;783;-68
2023/09/02 08:26:26;;;;;;;;;;;;;;;19.82;61.79;100116.56;10410676;28;889;-70
2023/09/02 08:31:22;;;;;;;;;;;;;;;19.80;61.76;100117.56;10410749;28;1922;-69
2023/09/02 08:36:18;;;;;;;;;;;;;;;19.81;61.73;100122.81;10410634;28;1107;-68
2023/09/02 08:41:14;;;;;;;;;;;;;;;19.86;61.75;100118.16;10410973;28;862;-68
2023/09/02 08:46:10;;;;;;;;;;;;;;;19.88;61.62;100124.22;10411289;28;829;-68
2023/09/02 08:51:05;;;;;;;;;;;;;;;19.87;61.56;100119.88;10411003;28;1901;-69
2023/09/02 08:56:01;;;;;;;;;;;;;;;19.85;61.90;100123.50;10409566;28;981;-69
2023/09/02 09:00:57;;;;;;;;;;;;;;;19.84;61.76;100120.00;10410047;28;934;-71
2023/09/02 09:05:54;;;;;;;;;;;;;;;19.84;61.82;100124.44;10409063;28;925;-68
2023/09/02 09:10:49;;;;;;;;;;;;;;;19.82;61.59;100123.66;10410376;28;915;-69
2023/09/02 09:15:45;;;;;;;;;;;;;;;19.87;61.52;100125.16;10406945;28;1893;-70
2023/09/02 09:20:41;;;;;;;;;;;;;;;19.92;61.34;100122.31;10412894;27;1677;-69
2023/09/02 09:25:37;;;;;;;;;;;;;;;19.96;62.16;100131.78;10433003;27;864;-69
2023/09/02 09:30:33;;;;;;;;;;;;;;;19.99;62.32;100129.03;10427151;27;1154;-69
2023/09/02 09:35:30;;;;;;;;;;;;;;;20.01;62.74;100134.25;10408693;28;1960;-69
2023/09/02 09:40:26;;;;;;;;;;;;;;;20.01;62.65;100121.00;10408070;28;857;-68
2023/09/02 09:45:21;;;;;;;;;;;;;;;20.01;63.32;100131.59;10407688;28;833;-68
2023/09/02 09:50:18;;;;;;;;;;;;;;;20.01;63.09;100134.25;10408648;28;843;-68
2023/09/02 09:55:13;;;;;;;;;;;;;;;20.01;62.95;100136.88;10407848;28;1957;-67
2023/09/02 10:00:09;;;;;;;;;;;;;;;19.99;62.94;100141.38;10407958;28;778;-68
2023/09/02 10:05:05;;;;;;;;;;;;;;;20.00;63.24;100145.75;10408431;28;853;-68
2023/09/02 10:10:01;;;;;;;;;;;;;;;20.00;62.84;100145.75;10407296;28;865;-66
2023/09/02 10:14:57;;;;;;;;;;;;;;;19.98;62.92;100147.63;10421263;28;1955;-71
2023/09/02 10:19:53;;;;;;;;;;;;;;;19.96;62.78;100152.09;10431670;28;879;-73
2023/09/02 10:24:49;;;;;;;;;;;;;;;19.95;62.65;100148.63;10449565;28;825;-70
2023/09/02 10:29:44;;;;;;;;;;;;;;;19.98;62.47;100148.47;10449654;28;1092;-71
2023/09/02 10:34:40;;;;;;;;;;;;;;;19.93;62.46;100153.97;10449494;28;1981;-74
2023/09/02 10:39:36;;;;;;;;;;;;;;;19.91;62.39;100147.03;10448924;28;833;-72
2023/09/02 10:44:32;;;;;;;;;;;;;;;19.88;62.46;100148.03;10449927;28;837;-74
2023/09/02 10:49:28;;;;;;;;;;;;;;;19.87;62.30;100159.53;10448210;28;837;-73
2023/09/02 10:54:24;;;;;;;;;;;;;;;19.86;62.19;100157.84;10452148;27;1901;-73
2023/09/02 10:59:20;;;;;;;;;;;;;;;19.87;62.04;100161.34;10455094;27;1054;-74
2023/09/02 11:04:16;;;;;;;;;;;;;;;19.90;62.23;100162.03;10435069;27;1704;-75
2023/09/02 11:09:12;;;;;;;;;;;;;;;19.88;62.06;100158.59;10450389;27;854;-73
2023/09/02 11:14:08;;;;;;;;;;;;;;;19.89;61.99;100156.84;10413646;28;1901;-73
2023/09/02 11:19:08;;;;;;;;;;;;;;;19.87;61.89;100158.69;10413245;28;888;-74
2023/09/02 11:24:04;;;;;;;;;;;;;;;19.89;61.92;100163.00;10413729;28;922;-74
2023/09/02 11:29:00;;;;;;;;;;;;;;;19.88;61.94;100161.25;10413173;28;1264;-74
2023/09/02 11:33:56;;;;;;;;;;;;;;;19.85;62.09;100164.03;10414050;28;1967;-74
2023/09/02 11:38:52;;;;;;;;;;;;;;;19.83;61.93;100168.56;10413223;28;997;-74
2023/09/02 11:43:47;;;;;;;;;;;;;;;19.82;61.90;100164.19;10413109;28;924;-74
2023/09/02 11:48:43;;;;;;;;;;;;;;;19.84;62.03;100180.84;10413148;28;843;-73
2023/09/02 11:53:41;;;;;;;;;;;;;;;19.84;61.78;100188.78;10412755;28;1901;-74
2023/09/02 11:58:37;;;;;;;;;;;;;;;19.85;61.89;100190.50;10412383;28;857;-75
2023/09/02 12:03:33;;;;;;;;;;;;;;;19.88;61.74;100185.06;10411472;28;944;-71
2023/09/02 12:08:29;;;;;;;;;;;;;;;19.84;61.88;100183.50;10410092;28;985;-73
2023/09/02 12:13:24;;;;;;;;;;;;;;;19.80;62.08;100175.75;10411449;28;1955;-72
2023/09/02 12:18:21;;;;;;;;;;;;;;;19.79;62.02;100168.75;10412043;28;782;-75
2023/09/02 12:23:16;;;;;;;;;;;;;;;19.79;61.93;100174.91;10411911;28;872;-72
2023/09/02 12:28:12;;;;;;;;;;;;;;;19.80;61.93;100173.13;10411071;28;1143;-72
2023/09/02 12:33:08;;;;;;;;;;;;;;;19.85;61.89;100185.19;10410966;28;1910;-72
2023/09/02 12:38:04;;;;;;;;;;;;;;;19.87;61.77;100191.28;10410964;28;897;-72
2023/09/02 12:43:00;;;;;;;;;;;;;;;19.86;61.64;100205.47;10410584;28;767;-72
2023/09/02 12:47:59;;;;;;;;;;;;;;;19.80;61.93;100207.50;10410373;28;790;-72
2023/09/02 12:52:55;;;;;;;;;;;;;;;19.82;62.06;100205.66;10407860;27;1894;-74
2023/09/02 12:57:51;;;;;;;;;;;;;;;19.81;61.93;100204.81;10409643;28;927;-71
2023/09/02 13:02:47;;;;;;;;;;;;;;;19.80;61.92;100208.34;10409863;28;842;-71
2023/09/02 13:07:43;;;;;;;;;;;;;;;19.83;61.97;100204.72;10410026;28;846;-71
2023/09/02 13:12:39;;;;;;;;;;;;;;;19.88;61.83;100213.31;10409477;28;1957;-71
2023/09/02 13:17:35;;;;;;;;;;;;;;;19.87;61.92;100215.09;10407966;28;918;-71
2023/09/02 13:22:31;;;;;;;;;;;;;;;19.87;62.01;100215.09;10407196;28;983;-71
2023/09/02 13:27:27;;;;;;;;;;;;;;;19.87;61.99;100217.75;10408489;28;1113;-72
2023/09/02 13:32:23;;;;;;;;;;;;;;;19.87;62.09;100220.38;10408282;28;1965;-68
2023/09/02 13:37:19;;;;;;;;;;;;;;;19.89;62.09;100220.34;10408308;28;917;-68
2023/09/02 13:42:15;;;;;;;;;;;;;;;19.89;61.96;100223.84;10407630;28;829;-71
2023/09/02 13:47:11;;;;;;;;;;;;;;;19.86;62.16;100226.63;10408043;28;813;-68
2023/09/02 13:52:07;;;;;;;;;;;;;;;19.87;62.23;100230.97;10407421;28;1965;-66
2023/09/02 13:57:03;;;;;;;;;;;;;;;19.88;62.29;100237.13;10407943;28;782;-68
2023/09/02 14:01:58;;;;;;;;;;;;;;;19.88;62.02;100237.13;10407704;28;759;-71
2023/09/02 14:06:54;;;;;;;;;;;;;;;19.99;61.81;100229.59;10407856;28;864;-68
2023/09/02 14:11:50;;;;;;;;;;;;;;;20.01;61.98;100240.94;10406470;28;1894;-69
2023/09/02 14:16:46;;;;;;;;;;;;;;;20.04;61.93;100235.53;10407360;28;754;-68
2023/09/02 14:21:42;;;;;;;;;;;;;;;19.97;62.07;100234.06;10406920;28;801;-71
2023/09/02 14:26:38;;;;;;;;;;;;;;;19.93;62.37;100233.34;10407772;28;868;-68
2023/09/02 14:31:34;;;;;;;;;;;;;;;20.05;62.20;100228.44;10415135;28;1973;-68
2023/09/02 14:36:30;;;;;;;;;;;;;;;20.10;62.10;100227.31;10416284;28;862;-68
2023/09/02 14:41:25;;;;;;;;;;;;;;;20.07;62.29;100227.44;10415417;28;773;-68
2023/09/02 14:46:22;;;;;;;;;;;;;;;20.01;62.42;100233.00;10415292;28;836;-68
2023/09/02 14:51:18;;;;;;;;;;;;;;;19.96;62.64;100234.13;10415567;28;1936;-68
2023/09/02 14:56:14;;;;;;;;;;;;;;;19.93;62.89;100237.78;10414144;28;825;-68
2023/09/02 15:01:10;;;;;;;;;;;;;;;19.90;62.71;100244.06;10414847;28;904;-72
2023/09/02 15:06:06;;;;;;;;;;;;;;;19.89;62.83;100239.72;10414174;28;934;-69
2023/09/02 15:11:02;;;;;;;;;;;;;;;19.87;62.70;100241.56;10414461;28;836;-70
2023/09/02 15:15:57;;;;;;;;;;;;;;;19.84;62.78;100252.28;10415461;28;1929;-71
2023/09/02 15:20:53;;;;;;;;;;;;;;;19.87;62.82;100246.84;10414033;28;844;-70
2023/09/02 15:25:49;;;;;;;;;;;;;;;19.91;62.75;100252.84;10413990;28;747;-69
2023/09/02 15:30:45;;;;;;;;;;;;;;;19.93;63.20;100256.28;10414519;28;1096;-69
2023/09/02 15:35:41;;;;;;;;;;;;;;;19.95;63.49;100266.81;10414004;28;1975;-69
2023/09/02 15:40:37;;;;;;;;;;;;;;;19.94;63.38;100268.63;10413325;28;837;-70
2023/09/02 15:45:34;;;;;;;;;;;;;;;19.95;63.74;100265.03;10413594;28;906;-70
2023/09/02 15:50:30;;;;;;;;;;;;;;;19.96;64.10;100263.25;10413369;28;844;-70
2023/09/02 15:55:26;;;;;;;;;;;;;;;19.99;63.93;100265.75;10412815;28;1946;-69
2023/09/02 16:00:22;;;;;;;;;;;;;;;20.02;63.84;100268.28;10413170;28;954;-71
2023/09/02 16:05:18;;;;;;;;;;;;;;;20.02;63.76;100265.63;10412680;28;862;-71
2023/09/02 16:10:14;;;;;;;;;;;;;;;20.00;63.65;100268.34;10412296;28;841;-71
2023/09/02 16:15:10;;;;;;;;;;;;;;;20.01;63.81;100270.03;10411971;28;1944;-70
2023/09/02 16:20:06;;;;;;;;;;;;;;;20.00;63.99;100270.97;10411918;28;926;-70
2023/09/02 16:25:02;;;;;;;;;;;;;;;20.02;63.91;100281.50;10411620;28;956;-71
2023/09/02 16:29:58;;;;;;;;;;;;;;;19.99;64.13;100284.25;10411781;28;1258;-69
2023/09/02 16:34:54;;;;;;;;;;;;;;;19.97;64.35;100284.34;10411036;28;1922;-70
2023/09/02 16:39:50;;;;;;;;;;;;;;;19.97;64.17;100286.16;10412309;28;887;-71
2023/09/02 16:44:46;;;;;;;;;;;;;;;19.98;64.23;100290.50;10410846;28;915;-70
2023/09/02 16:49:42;;;;;;;;;;;;;;;20.03;64.43;100288.50;10410846;28;769;-71
2023/09/02 16:54:38;;;;;;;;;;;;;;;20.05;64.93;100297.25;10410282;28;1898;-67
2023/09/02 16:59:34;;;;;;;;;;;;;;;20.04;65.35;100296.41;10409700;28;883;-67
2023/09/02 17:04:30;;;;;;;;;;;;;;;20.03;65.48;100305.25;10408034;28;1136;-73
2023/09/02 17:09:25;;;;;;;;;;;;;;;20.03;65.70;100296.44;10409543;28;1058;-68
2023/09/02 17:14:21;;;;;;;;;;;;;;;20.02;65.96;100300.03;10409690;28;1968;-70
2023/09/02 17:19:17;;;;;;;;;;;;;;;20.01;66.21;100299.16;10408398;28;1090;-69
2023/09/02 17:24:13;;;;;;;;;;;;;;;20.00;66.10;100308.03;10409108;28;1134;-69
2023/09/02 17:29:09;;;;;;;;;;;;;;;20.00;66.19;100302.72;10408363;28;1254;-70
2023/09/02 17:34:05;;;;;;;;;;;;;;;20.01;66.26;100308.88;10408156;28;1968;-70
2023/09/02 17:39:01;;;;;;;;;;;;;;;20.00;65.90;100315.09;10408444;28;993;-71
2023/09/02 17:43:57;;;;;;;;;;;;;;;19.99;65.88;100308.06;10408374;28;774;-71
2023/09/02 17:48:53;;;;;;;;;;;;;;;19.99;66.06;100311.59;10408463;28;865;-71
2023/09/02 17:53:48;;;;;;;;;;;;;;;19.98;66.07;100319.59;10408407;28;1906;-69
2023/09/02 17:58:44;;;;;;;;;;;;;;;19.97;65.84;100325.84;10408840;28;806;-69
2023/09/02 18:03:40;;;;;;;;;;;;;;;19.95;66.19;100322.38;10425351;27;1532;-69
2023/09/02 18:08:36;;;;;;;;;;;;;;;19.95;65.82;100343.56;10418854;27;1635;-68
2023/09/02 18:13:32;;;;;;;;;;;;;;;19.97;65.83;100360.22;10417570;27;1952;-70
2023/09/02 18:18:28;;;;;;;;;;;;;;;19.91;66.06;100371.91;10433265;28;1572;-72
2023/09/02 18:23:24;;;;;;;;;;;;;;;19.89;65.69;100382.56;10425330;28;1319;-75
2023/09/02 18:28:20;;;;;;;;;;;;;;;19.88;65.68;100386.13;10407291;28;1296;-75
2023/09/02 18:33:15;;;;;;;;;;;;;;;19.88;65.53;100393.22;10409039;28;1910;-75
2023/09/02 18:38:11;;;;;;;;;;;;;;;19.85;65.49;100404.78;10427463;28;1238;-75
2023/09/02 18:43:08;;;;;;;;;;;;;;;19.85;65.33;100407.41;10449166;28;792;-75
2023/09/02 18:48:04;;;;;;;;;;;;;;;19.84;65.24;100405.72;10449680;28;852;-75
2023/09/02 18:53:01;;;;;;;;;;;;;;;19.84;64.96;100403.06;10448878;28;1955;-75
2023/09/02 18:57:57;;;;;;;;;;;;;;;19.83;65.03;100411.94;10448538;28;778;-75
2023/09/02 19:02:52;;;;;;;;;;;;;;;19.83;65.08;100419.00;10449391;28;896;-75
2023/09/02 19:07:48;;;;;;;;;;;;;;;19.83;64.75;100419.88;10448130;28;1054;-75
2023/09/02 19:12:44;;;;;;;;;;;;;;;19.83;64.89;100414.59;10449008;28;1965;-75
2023/09/02 19:17:40;;;;;;;;;;;;;;;19.83;64.73;100419.00;10455536;27;762;-75
2023/09/02 19:22:36;;;;;;;;;;;;;;;19.82;64.70;100414.63;10456021;27;973;-75
2023/09/02 19:27:32;;;;;;;;;;;;;;;19.82;64.54;100427.88;10456579;27;1459;-75
2023/09/02 19:32:28;;;;;;;;;;;;;;;19.82;64.43;100430.50;10455620;27;1922;-75
2023/09/02 19:37:24;;;;;;;;;;;;;;;19.82;64.50;100428.72;10455540;27;920;-75
2023/09/02 19:42:20;;;;;;;;;;;;;;;19.80;64.54;100427.91;10454629;27;925;-75
2023/09/02 19:47:15;;;;;;;;;;;;;;;19.81;64.40;100434.94;10455030;27;805;-75
2023/09/02 19:52:11;;;;;;;;;;;;;;;19.81;64.42;100428.78;10455466;27;1952;-75
2023/09/02 19:57:07;;;;;;;;;;;;;;;19.80;64.28;100437.63;10454673;27;857;-75
2023/09/02 20:02:03;;;;;;;;;;;;;;;19.80;64.16;100438.50;10454541;27;874;-74
2023/09/02 20:06:59;;;;;;;;;;;;;;;19.80;64.25;100440.28;10454330;27;885;-75
2023/09/02 20:11:55;;;;;;;;;;;;;;;19.80;64.16;100448.22;10454961;27;1901;-75
2023/09/02 20:16:51;;;;;;;;;;;;;;;19.79;64.03;100451.81;10454557;27;880;-75
2023/09/02 20:21:47;;;;;;;;;;;;;;;19.78;63.98;100450.94;10453823;27;853;-75
2023/09/02 20:26:43;;;;;;;;;;;;;;;19.79;64.16;100459.75;10452841;27;818;-75
2023/09/02 20:31:38;;;;;;;;;;;;;;;19.78;64.08;100455.34;10453784;27;1909;-75
2023/09/02 20:36:34;;;;;;;;;;;;;;;19.78;63.91;100466.81;10453214;27;848;-75
2023/09/02 20:41:30;;;;;;;;;;;;;;;19.79;64.00;100465.88;10452324;27;883;-75
2023/09/02 20:46:26;;;;;;;;;;;;;;;19.78;63.89;100471.22;10452811;27;860;-75
2023/09/02 20:51:22;;;;;;;;;;;;;;;19.78;63.91;100476.50;10452559;27;924;-75
2023/09/02 20:56:18;;;;;;;;;;;;;;;19.77;63.81;100480.94;10452435;27;1893;-75
2023/09/02 21:01:14;;;;;;;;;;;;;;;19.77;63.89;100490.69;10452693;27;898;-75
2023/09/02 21:06:10;;;;;;;;;;;;;;;19.77;63.85;100491.53;10452604;27;793;-75
2023/09/02 21:11:06;;;;;;;;;;;;;;;19.78;63.79;100506.50;10451773;27;768;-75
2023/09/02 21:16:02;;;;;;;;;;;;;;;19.77;63.71;100510.03;10452092;27;1956;-75
2023/09/02 21:20:58;;;;;;;;;;;;;;;19.77;63.83;100514.47;10451397;27;782;-75
2023/09/02 21:25:54;;;;;;;;;;;;;;;19.76;63.76;100516.28;10451450;27;872;-75
2023/09/02 21:30:49;;;;;;;;;;;;;;;19.77;63.90;100517.13;10450959;27;1213;-75
2023/09/02 21:35:45;;;;;;;;;;;;;;;19.77;63.72;100517.13;10451421;27;1963;-75
2023/09/02 21:40:41;;;;;;;;;;;;;;;19.76;63.75;100524.22;10450467;27;912;-75
2023/09/02 21:45:37;;;;;;;;;;;;;;;19.76;63.63;100534.78;10450792;27;765;-71
2023/09/02 21:50:33;;;;;;;;;;;;;;;19.75;63.67;100538.34;10416425;27;1171;-70
2023/09/02 21:55:29;;;;;;;;;;;;;;;19.76;63.59;100540.06;10407709;28;1955;-67
2023/09/02 22:00:24;;;;;;;;;;;;;;;19.75;63.83;100538.34;10408063;28;877;-69
2023/09/02 22:05:20;;;;;;;;;;;;;;;19.76;64.11;100541.88;10408104;28;829;-68
2023/09/02 22:10:16;;;;;;;;;;;;;;;19.80;64.09;100544.31;10408297;28;854;-68
2023/09/02 22:15:12;;;;;;;;;;;;;;;19.76;64.14;100550.66;10407783;28;1898;-67
2023/09/02 22:20:08;;;;;;;;;;;;;;;19.78;64.06;100553.22;10407757;28;772;-70
2023/09/02 22:25:04;;;;;;;;;;;;;;;19.78;64.18;100553.22;10408252;28;876;-69
2023/09/02 22:30:00;;;;;;;;;;;;;;;19.77;64.29;100552.38;10408148;28;1152;-70
2023/09/02 22:34:56;;;;;;;;;;;;;;;19.76;64.21;100553.31;10406463;28;1905;-70
2023/09/02 22:39:52;;;;;;;;;;;;;;;19.77;64.04;100556.81;10406748;28;849;-70
2023/09/02 22:44:48;;;;;;;;;;;;;;;19.76;64.07;100560.38;10406948;28;931;-69
2023/09/02 22:49:44;;;;;;;;;;;;;;;19.76;64.23;100566.53;10409945;28;797;-69
2023/09/02 22:54:40;;;;;;;;;;;;;;;19.76;64.10;100560.38;10415268;28;1959;-69
2023/09/02 22:59:35;;;;;;;;;;;;;;;19.76;64.31;100573.63;10414595;28;928;-69
2023/09/02 23:04:31;;;;;;;;;;;;;;;19.76;64.17;100566.53;10415002;28;959;-69
2023/09/02 23:09:27;;;;;;;;;;;;;;;19.75;64.19;100580.66;10414817;28;933;-69
2023/09/02 23:14:23;;;;;;;;;;;;;;;19.75;64.00;100591.25;10414428;28;1960;-68
2023/09/02 23:19:19;;;;;;;;;;;;;;;19.76;64.26;100597.41;10414572;28;886;-69
2023/09/02 23:24:15;;;;;;;;;;;;;;;19.76;64.19;100584.19;10414823;28;798;-67
2023/09/02 23:29:11;;;;;;;;;;;;;;;19.75;64.24;100591.25;10414367;28;1280;-68
2023/09/02 23:34:07;;;;;;;;;;;;;;;19.76;64.32;100592.13;10414347;28;1910;-70
2023/09/02 23:39:03;;;;;;;;;;;;;;;19.75;64.25;100588.59;10413648;28;853;-70
2023/09/02 23:43:59;;;;;;;;;;;;;;;19.74;64.14;100592.16;10413804;28;793;-70
2023/09/02 23:48:54;;;;;;;;;;;;;;;19.74;64.27;100592.16;10413545;28;909;-70
2023/09/02 23:53:50;;;;;;;;;;;;;;;19.74;64.00;100593.97;10412997;28;1906;-71
2023/09/02 23:58:46;;;;;;;;;;;;;;;19.74;64.06;100586.88;10412444;28;904;-70
